sensor_id;sensor_type;location;lat;lon;timestamp;P1;durP1;ratioP1;P2;durP2;ratioP2
75787;SDS011;64406;50.024;14.492;2023-04-23T00:00:20;8.07;;;3.88;;
75787;SDS011;64406;50.024;14.492;2023-04-23T00:03:07;4.60;;;3.22;;
75787;SDS011;64406;50.024;14.492;2023-04-23T00:05:37;5.95;;;4.00;;
75787;SDS011;64406;50.024;14.492;2023-04-23T00:08:03;13.68;;;3.78;;
75787;SDS011;64406;50.024;14.492;2023-04-23T00:10:30;6.60;;;4.13;;
75787;SDS011;64406;50.024;14.492;2023-04-23T00:12:56;6.47;;;3.65;;
75787;SDS011;64406;50.024;14.492;2023-04-23T00:15:22;6.93;;;4.03;;
75787;SDS011;64406;50.024;14.492;2023-04-23T00:17:48;5.68;;;3.55;;
75787;SDS011;64406;50.024;14.492;2023-04-23T00:20:14;6.75;;;3.60;;
75787;SDS011;64406;50.024;14.492;2023-04-23T00:22:41;6.25;;;4.35;;
75787;SDS011;64406;50.024;14.492;2023-04-23T00:25:07;5.82;;;3.70;;
75787;SDS011;64406;50.024;14.492;2023-04-23T00:27:33;9.27;;;3.80;;
75787;SDS011;64406;50.024;14.492;2023-04-23T00:29:59;5.07;;;3.42;;
75787;SDS011;64406;50.024;14.492;2023-04-23T00:32:24;7.88;;;3.65;;
75787;SDS011;64406;50.024;14.492;2023-04-23T00:34:50;5.38;;;3.33;;
75787;SDS011;64406;50.024;14.492;2023-04-23T00:37:16;5.80;;;3.45;;
75787;SDS011;64406;50.024;14.492;2023-04-23T00:39:42;5.15;;;3.40;;
75787;SDS011;64406;50.024;14.492;2023-04-23T00:42:08;8.55;;;3.60;;
75787;SDS011;64406;50.024;14.492;2023-04-23T00:44:37;5.20;;;3.65;;
75787;SDS011;64406;50.024;14.492;2023-04-23T00:47:04;7.95;;;3.95;;
75787;SDS011;64406;50.024;14.492;2023-04-23T00:49:30;6.35;;;3.70;;
75787;SDS011;64406;50.024;14.492;2023-04-23T00:51:55;6.95;;;3.63;;
75787;SDS011;64406;50.024;14.492;2023-04-23T00:54:22;5.22;;;3.53;;
75787;SDS011;64406;50.024;14.492;2023-04-23T00:56:48;6.60;;;3.40;;
75787;SDS011;64406;50.024;14.492;2023-04-23T00:59:14;6.50;;;4.25;;
75787;SDS011;64406;50.024;14.492;2023-04-23T01:01:40;5.50;;;4.13;;
75787;SDS011;64406;50.024;14.492;2023-04-23T01:04:06;4.43;;;3.60;;
75787;SDS011;64406;50.024;14.492;2023-04-23T01:06:33;7.47;;;4.22;;
75787;SDS011;64406;50.024;14.492;2023-04-23T01:09:00;10.27;;;4.82;;
75787;SDS011;64406;50.024;14.492;2023-04-23T01:11:25;8.70;;;3.95;;
75787;SDS011;64406;50.024;14.492;2023-04-23T01:13:51;6.15;;;4.10;;
75787;SDS011;64406;50.024;14.492;2023-04-23T01:16:17;10.70;;;4.65;;
75787;SDS011;64406;50.024;14.492;2023-04-23T01:18:43;7.60;;;4.80;;
75787;SDS011;64406;50.024;14.492;2023-04-23T01:21:09;7.35;;;4.55;;
75787;SDS011;64406;50.024;14.492;2023-04-23T01:23:38;10.57;;;4.60;;
75787;SDS011;64406;50.024;14.492;2023-04-23T01:26:04;6.63;;;4.25;;
75787;SDS011;64406;50.024;14.492;2023-04-23T01:28:30;7.20;;;4.32;;
75787;SDS011;64406;50.024;14.492;2023-04-23T01:30:55;6.65;;;4.15;;
75787;SDS011;64406;50.024;14.492;2023-04-23T01:33:22;8.07;;;3.65;;
75787;SDS011;64406;50.024;14.492;2023-04-23T01:35:48;6.15;;;3.72;;
75787;SDS011;64406;50.024;14.492;2023-04-23T01:38:15;6.00;;;3.50;;
75787;SDS011;64406;50.024;14.492;2023-04-23T01:40:41;8.23;;;4.28;;
75787;SDS011;64406;50.024;14.492;2023-04-23T01:43:08;6.70;;;4.10;;
75787;SDS011;64406;50.024;14.492;2023-04-23T01:45:33;6.78;;;3.60;;
75787;SDS011;64406;50.024;14.492;2023-04-23T01:47:59;7.10;;;4.38;;
75787;SDS011;64406;50.024;14.492;2023-04-23T01:50:25;7.53;;;3.78;;
75787;SDS011;64406;50.024;14.492;2023-04-23T01:52:52;14.27;;;4.78;;
75787;SDS011;64406;50.024;14.492;2023-04-23T01:55:17;7.57;;;4.30;;
75787;SDS011;64406;50.024;14.492;2023-04-23T01:57:44;9.82;;;4.13;;
75787;SDS011;64406;50.024;14.492;2023-04-23T02:00:11;10.63;;;3.97;;
75787;SDS011;64406;50.024;14.492;2023-04-23T02:02:38;9.15;;;3.60;;
75787;SDS011;64406;50.024;14.492;2023-04-23T02:05:09;6.55;;;4.03;;
75787;SDS011;64406;50.024;14.492;2023-04-23T02:07:36;9.57;;;4.20;;
75787;SDS011;64406;50.024;14.492;2023-04-23T02:10:02;9.32;;;3.80;;
75787;SDS011;64406;50.024;14.492;2023-04-23T02:12:28;5.68;;;4.25;;
75787;SDS011;64406;50.024;14.492;2023-04-23T02:14:53;9.05;;;4.40;;
75787;SDS011;64406;50.024;14.492;2023-04-23T02:17:20;9.30;;;4.88;;
75787;SDS011;64406;50.024;14.492;2023-04-23T02:19:47;6.40;;;4.18;;
75787;SDS011;64406;50.024;14.492;2023-04-23T02:22:13;11.27;;;4.53;;
75787;SDS011;64406;50.024;14.492;2023-04-23T02:24:39;7.53;;;4.30;;
75787;SDS011;64406;50.024;14.492;2023-04-23T02:27:06;7.82;;;4.60;;
75787;SDS011;64406;50.024;14.492;2023-04-23T02:29:32;4.90;;;3.95;;
75787;SDS011;64406;50.024;14.492;2023-04-23T02:31:59;11.63;;;4.03;;
75787;SDS011;64406;50.024;14.492;2023-04-23T02:34:24;8.00;;;4.22;;
75787;SDS011;64406;50.024;14.492;2023-04-23T02:36:50;9.20;;;4.65;;
75787;SDS011;64406;50.024;14.492;2023-04-23T02:39:15;6.25;;;4.80;;
75787;SDS011;64406;50.024;14.492;2023-04-23T02:41:41;9.35;;;5.10;;
75787;SDS011;64406;50.024;14.492;2023-04-23T02:44:06;9.10;;;4.90;;
75787;SDS011;64406;50.024;14.492;2023-04-23T02:46:32;9.98;;;5.13;;
75787;SDS011;64406;50.024;14.492;2023-04-23T02:49:00;7.65;;;5.03;;
75787;SDS011;64406;50.024;14.492;2023-04-23T02:51:26;9.48;;;5.00;;
75787;SDS011;64406;50.024;14.492;2023-04-23T02:53:51;9.68;;;4.95;;
75787;SDS011;64406;50.024;14.492;2023-04-23T02:56:17;8.70;;;5.30;;
75787;SDS011;64406;50.024;14.492;2023-04-23T02:58:43;6.38;;;4.40;;
75787;SDS011;64406;50.024;14.492;2023-04-23T03:01:09;8.15;;;4.57;;
75787;SDS011;64406;50.024;14.492;2023-04-23T03:03:35;11.23;;;5.07;;
75787;SDS011;64406;50.024;14.492;2023-04-23T03:06:01;11.20;;;5.68;;
75787;SDS011;64406;50.024;14.492;2023-04-23T03:08:27;9.35;;;5.63;;
75787;SDS011;64406;50.024;14.492;2023-04-23T03:10:53;6.20;;;4.95;;
75787;SDS011;64406;50.024;14.492;2023-04-23T03:13:19;7.20;;;5.03;;
75787;SDS011;64406;50.024;14.492;2023-04-23T03:15:44;9.63;;;6.18;;
75787;SDS011;64406;50.024;14.492;2023-04-23T03:18:10;6.78;;;4.80;;
75787;SDS011;64406;50.024;14.492;2023-04-23T03:20:36;10.02;;;4.75;;
75787;SDS011;64406;50.024;14.492;2023-04-23T03:23:02;8.52;;;5.30;;
75787;SDS011;64406;50.024;14.492;2023-04-23T03:25:31;6.72;;;4.63;;
75787;SDS011;64406;50.024;14.492;2023-04-23T03:27:57;9.25;;;5.00;;
75787;SDS011;64406;50.024;14.492;2023-04-23T03:30:23;8.32;;;5.25;;
75787;SDS011;64406;50.024;14.492;2023-04-23T03:32:49;7.72;;;4.95;;
75787;SDS011;64406;50.024;14.492;2023-04-23T03:35:15;7.35;;;4.05;;
75787;SDS011;64406;50.024;14.492;2023-04-23T03:37:41;5.75;;;4.30;;
75787;SDS011;64406;50.024;14.492;2023-04-23T03:40:07;6.70;;;4.40;;
75787;SDS011;64406;50.024;14.492;2023-04-23T03:42:34;7.35;;;4.78;;
75787;SDS011;64406;50.024;14.492;2023-04-23T03:45:00;8.48;;;4.65;;
75787;SDS011;64406;50.024;14.492;2023-04-23T03:47:26;7.55;;;4.75;;
75787;SDS011;64406;50.024;14.492;2023-04-23T03:49:52;8.60;;;5.22;;
75787;SDS011;64406;50.024;14.492;2023-04-23T03:52:17;7.60;;;4.18;;
75787;SDS011;64406;50.024;14.492;2023-04-23T03:54:43;7.72;;;4.75;;
75787;SDS011;64406;50.024;14.492;2023-04-23T03:57:09;4.90;;;4.35;;
75787;SDS011;64406;50.024;14.492;2023-04-23T03:59:36;7.45;;;4.38;;
75787;SDS011;64406;50.024;14.492;2023-04-23T04:02:02;6.97;;;4.43;;
75787;SDS011;64406;50.024;14.492;2023-04-23T04:04:29;9.43;;;5.18;;
75787;SDS011;64406;50.024;14.492;2023-04-23T04:06:55;11.18;;;5.88;;
75787;SDS011;64406;50.024;14.492;2023-04-23T04:09:22;7.43;;;4.82;;
75787;SDS011;64406;50.024;14.492;2023-04-23T04:11:47;6.40;;;4.78;;
75787;SDS011;64406;50.024;14.492;2023-04-23T04:14:13;8.45;;;4.47;;
75787;SDS011;64406;50.024;14.492;2023-04-23T04:16:39;6.72;;;4.22;;
75787;SDS011;64406;50.024;14.492;2023-04-23T04:19:05;7.65;;;4.63;;
75787;SDS011;64406;50.024;14.492;2023-04-23T04:21:31;6.40;;;4.30;;
75787;SDS011;64406;50.024;14.492;2023-04-23T04:23:58;6.97;;;4.50;;
75787;SDS011;64406;50.024;14.492;2023-04-23T04:26:26;7.95;;;4.72;;
75787;SDS011;64406;50.024;14.492;2023-04-23T04:28:53;6.25;;;3.92;;
75787;SDS011;64406;50.024;14.492;2023-04-23T04:31:18;12.20;;;4.95;;
75787;SDS011;64406;50.024;14.492;2023-04-23T04:33:47;7.75;;;4.40;;
75787;SDS011;64406;50.024;14.492;2023-04-23T04:36:13;9.75;;;3.95;;
75787;SDS011;64406;50.024;14.492;2023-04-23T04:38:39;5.07;;;4.15;;
75787;SDS011;64406;50.024;14.492;2023-04-23T04:41:04;7.32;;;4.70;;
75787;SDS011;64406;50.024;14.492;2023-04-23T04:43:31;7.10;;;4.55;;
75787;SDS011;64406;50.024;14.492;2023-04-23T04:45:57;6.15;;;4.40;;
75787;SDS011;64406;50.024;14.492;2023-04-23T04:48:23;7.60;;;4.60;;
75787;SDS011;64406;50.024;14.492;2023-04-23T04:50:49;8.35;;;5.50;;
75787;SDS011;64406;50.024;14.492;2023-04-23T04:53:15;7.00;;;5.20;;
75787;SDS011;64406;50.024;14.492;2023-04-23T04:55:40;7.38;;;4.60;;
75787;SDS011;64406;50.024;14.492;2023-04-23T04:58:06;7.40;;;4.93;;
75787;SDS011;64406;50.024;14.492;2023-04-23T05:00:32;5.97;;;4.20;;
75787;SDS011;64406;50.024;14.492;2023-04-23T05:02:58;7.18;;;4.93;;
75787;SDS011;64406;50.024;14.492;2023-04-23T05:05:25;7.28;;;5.07;;
75787;SDS011;64406;50.024;14.492;2023-04-23T05:07:52;9.52;;;5.78;;
75787;SDS011;64406;50.024;14.492;2023-04-23T05:10:23;7.78;;;4.70;;
75787;SDS011;64406;50.024;14.492;2023-04-23T05:12:49;9.80;;;5.15;;
75787;SDS011;64406;50.024;14.492;2023-04-23T05:15:16;7.53;;;5.00;;
75787;SDS011;64406;50.024;14.492;2023-04-23T05:17:42;7.75;;;5.55;;
75787;SDS011;64406;50.024;14.492;2023-04-23T05:20:08;7.78;;;5.28;;
75787;SDS011;64406;50.024;14.492;2023-04-23T05:22:38;8.52;;;5.03;;
75787;SDS011;64406;50.024;14.492;2023-04-23T05:25:08;9.18;;;5.55;;
75787;SDS011;64406;50.024;14.492;2023-04-23T05:27:36;9.93;;;6.05;;
75787;SDS011;64406;50.024;14.492;2023-04-23T05:30:03;8.93;;;5.20;;
75787;SDS011;64406;50.024;14.492;2023-04-23T05:32:31;8.38;;;5.68;;
75787;SDS011;64406;50.024;14.492;2023-04-23T05:34:56;8.65;;;5.35;;
75787;SDS011;64406;50.024;14.492;2023-04-23T05:37:24;10.77;;;5.30;;
75787;SDS011;64406;50.024;14.492;2023-04-23T05:39:49;7.35;;;4.78;;
75787;SDS011;64406;50.024;14.492;2023-04-23T05:42:15;10.52;;;6.15;;
75787;SDS011;64406;50.024;14.492;2023-04-23T05:44:41;8.05;;;4.93;;
75787;SDS011;64406;50.024;14.492;2023-04-23T05:47:07;9.70;;;5.80;;
75787;SDS011;64406;50.024;14.492;2023-04-23T05:49:34;7.47;;;5.38;;
75787;SDS011;64406;50.024;14.492;2023-04-23T05:52:00;8.38;;;5.68;;
75787;SDS011;64406;50.024;14.492;2023-04-23T05:54:27;11.43;;;5.60;;
75787;SDS011;64406;50.024;14.492;2023-04-23T05:56:53;9.98;;;5.32;;
75787;SDS011;64406;50.024;14.492;2023-04-23T05:59:21;10.27;;;4.72;;
75787;SDS011;64406;50.024;14.492;2023-04-23T06:01:47;13.02;;;5.93;;
75787;SDS011;64406;50.024;14.492;2023-04-23T06:04:13;10.48;;;4.53;;
75787;SDS011;64406;50.024;14.492;2023-04-23T06:06:41;8.13;;;5.07;;
75787;SDS011;64406;50.024;14.492;2023-04-23T06:09:07;5.43;;;4.00;;
75787;SDS011;64406;50.024;14.492;2023-04-23T06:11:33;4.97;;;4.05;;
75787;SDS011;64406;50.024;14.492;2023-04-23T06:14:00;7.13;;;4.78;;
75787;SDS011;64406;50.024;14.492;2023-04-23T06:16:26;6.90;;;4.97;;
75787;SDS011;64406;50.024;14.492;2023-04-23T06:18:51;10.68;;;6.20;;
75787;SDS011;64406;50.024;14.492;2023-04-23T06:21:18;15.45;;;8.25;;
75787;SDS011;64406;50.024;14.492;2023-04-23T06:23:44;11.52;;;7.18;;
75787;SDS011;64406;50.024;14.492;2023-04-23T06:26:09;13.50;;;7.35;;
75787;SDS011;64406;50.024;14.492;2023-04-23T06:28:35;9.40;;;6.43;;
75787;SDS011;64406;50.024;14.492;2023-04-23T06:31:01;10.48;;;6.45;;
75787;SDS011;64406;50.024;14.492;2023-04-23T06:33:26;7.93;;;5.95;;
75787;SDS011;64406;50.024;14.492;2023-04-23T06:35:52;6.07;;;4.10;;
75787;SDS011;64406;50.024;14.492;2023-04-23T06:38:18;7.10;;;4.45;;
75787;SDS011;64406;50.024;14.492;2023-04-23T06:40:45;6.43;;;3.88;;
75787;SDS011;64406;50.024;14.492;2023-04-23T06:43:11;6.43;;;4.03;;
75787;SDS011;64406;50.024;14.492;2023-04-23T06:45:37;5.45;;;3.70;;
75787;SDS011;64406;50.024;14.492;2023-04-23T06:48:02;4.43;;;3.50;;
75787;SDS011;64406;50.024;14.492;2023-04-23T06:50:28;4.32;;;3.38;;
75787;SDS011;64406;50.024;14.492;2023-04-23T06:52:53;6.00;;;3.53;;
75787;SDS011;64406;50.024;14.492;2023-04-23T06:55:20;5.10;;;3.40;;
75787;SDS011;64406;50.024;14.492;2023-04-23T06:57:50;6.18;;;3.80;;
75787;SDS011;64406;50.024;14.492;2023-04-23T07:00:17;7.15;;;3.40;;
75787;SDS011;64406;50.024;14.492;2023-04-23T07:02:43;5.10;;;3.20;;
75787;SDS011;64406;50.024;14.492;2023-04-23T07:05:09;5.53;;;3.47;;
75787;SDS011;64406;50.024;14.492;2023-04-23T07:07:35;4.20;;;3.05;;
75787;SDS011;64406;50.024;14.492;2023-04-23T07:10:03;4.40;;;3.28;;
75787;SDS011;64406;50.024;14.492;2023-04-23T07:12:29;5.55;;;3.10;;
75787;SDS011;64406;50.024;14.492;2023-04-23T07:14:55;6.15;;;3.13;;
75787;SDS011;64406;50.024;14.492;2023-04-23T07:17:21;4.63;;;2.65;;
75787;SDS011;64406;50.024;14.492;2023-04-23T07:19:46;4.35;;;3.38;;
75787;SDS011;64406;50.024;14.492;2023-04-23T07:22:12;5.40;;;3.00;;
75787;SDS011;64406;50.024;14.492;2023-04-23T07:24:38;3.60;;;2.40;;
75787;SDS011;64406;50.024;14.492;2023-04-23T07:27:04;5.03;;;2.67;;
75787;SDS011;64406;50.024;14.492;2023-04-23T07:29:30;5.45;;;2.58;;
75787;SDS011;64406;50.024;14.492;2023-04-23T07:31:56;5.63;;;3.08;;
75787;SDS011;64406;50.024;14.492;2023-04-23T07:34:22;3.97;;;2.58;;
75787;SDS011;64406;50.024;14.492;2023-04-23T07:36:47;4.65;;;2.30;;
75787;SDS011;64406;50.024;14.492;2023-04-23T07:39:13;8.25;;;2.35;;
75787;SDS011;64406;50.024;14.492;2023-04-23T07:41:38;2.58;;;2.38;;
75787;SDS011;64406;50.024;14.492;2023-04-23T07:44:04;2.60;;;2.20;;
75787;SDS011;64406;50.024;14.492;2023-04-23T07:46:30;5.00;;;2.50;;
75787;SDS011;64406;50.024;14.492;2023-04-23T07:48:56;4.88;;;2.72;;
75787;SDS011;64406;50.024;14.492;2023-04-23T07:51:22;3.28;;;2.58;;
75787;SDS011;64406;50.024;14.492;2023-04-23T07:53:54;4.05;;;2.55;;
75787;SDS011;64406;50.024;14.492;2023-04-23T07:56:20;6.95;;;2.85;;
75787;SDS011;64406;50.024;14.492;2023-04-23T07:58:47;3.40;;;2.30;;
75787;SDS011;64406;50.024;14.492;2023-04-23T08:01:13;2.75;;;2.20;;
75787;SDS011;64406;50.024;14.492;2023-04-23T08:03:39;4.30;;;3.10;;
75787;SDS011;64406;50.024;14.492;2023-04-23T08:06:04;2.50;;;2.13;;
75787;SDS011;64406;50.024;14.492;2023-04-23T08:08:30;5.00;;;2.22;;
75787;SDS011;64406;50.024;14.492;2023-04-23T08:10:56;8.43;;;2.88;;
75787;SDS011;64406;50.024;14.492;2023-04-23T08:13:22;8.15;;;2.65;;
75787;SDS011;64406;50.024;14.492;2023-04-23T08:15:49;5.00;;;2.30;;
75787;SDS011;64406;50.024;14.492;2023-04-23T08:18:16;4.07;;;1.70;;
75787;SDS011;64406;50.024;14.492;2023-04-23T08:20:42;3.17;;;2.33;;
75787;SDS011;64406;50.024;14.492;2023-04-23T08:23:08;3.15;;;2.13;;
75787;SDS011;64406;50.024;14.492;2023-04-23T08:25:33;5.18;;;2.17;;
75787;SDS011;64406;50.024;14.492;2023-04-23T08:27:59;4.97;;;2.35;;
75787;SDS011;64406;50.024;14.492;2023-04-23T08:30:24;3.28;;;1.95;;
75787;SDS011;64406;50.024;14.492;2023-04-23T08:32:51;3.10;;;2.05;;
75787;SDS011;64406;50.024;14.492;2023-04-23T08:35:20;3.78;;;2.20;;
75787;SDS011;64406;50.024;14.492;2023-04-23T08:37:47;3.88;;;2.28;;
75787;SDS011;64406;50.024;14.492;2023-04-23T08:40:12;2.95;;;1.80;;
75787;SDS011;64406;50.024;14.492;2023-04-23T08:42:57;2.03;;;1.80;;
75787;SDS011;64406;50.024;14.492;2023-04-23T08:45:27;7.00;;;3.10;;
75787;SDS011;64406;50.024;14.492;2023-04-23T08:47:57;3.45;;;1.83;;
75787;SDS011;64406;50.024;14.492;2023-04-23T08:50:23;2.47;;;2.03;;
75787;SDS011;64406;50.024;14.492;2023-04-23T08:52:54;3.55;;;2.20;;
75787;SDS011;64406;50.024;14.492;2023-04-23T08:55:21;2.90;;;1.80;;
75787;SDS011;64406;50.024;14.492;2023-04-23T08:57:48;5.70;;;1.95;;
75787;SDS011;64406;50.024;14.492;2023-04-23T09:00:15;4.35;;;1.98;;
75787;SDS011;64406;50.024;14.492;2023-04-23T09:02:43;1.55;;;1.30;;
75787;SDS011;64406;50.024;14.492;2023-04-23T09:05:10;2.10;;;1.67;;
75787;SDS011;64406;50.024;14.492;2023-04-23T09:07:37;2.25;;;1.10;;
75787;SDS011;64406;50.024;14.492;2023-04-23T09:10:03;4.03;;;1.38;;
75787;SDS011;64406;50.024;14.492;2023-04-23T09:12:31;1.50;;;1.10;;
75787;SDS011;64406;50.024;14.492;2023-04-23T09:14:59;2.58;;;1.48;;
75787;SDS011;64406;50.024;14.492;2023-04-23T09:17:27;1.98;;;1.33;;
75787;SDS011;64406;50.024;14.492;2023-04-23T09:19:54;3.90;;;1.80;;
75787;SDS011;64406;50.024;14.492;2023-04-23T09:25:05;3.97;;;1.20;;
75787;SDS011;64406;50.024;14.492;2023-04-23T09:27:32;5.57;;;1.60;;
75787;SDS011;64406;50.024;14.492;2023-04-23T09:29:59;2.65;;;1.35;;
75787;SDS011;64406;50.024;14.492;2023-04-23T09:32:34;5.57;;;1.50;;
75787;SDS011;64406;50.024;14.492;2023-04-23T09:35:06;2.67;;;1.20;;
75787;SDS011;64406;50.024;14.492;2023-04-23T09:37:40;3.60;;;1.70;;
75787;SDS011;64406;50.024;14.492;2023-04-23T09:40:08;2.72;;;1.48;;
75787;SDS011;64406;50.024;14.492;2023-04-23T09:42:35;3.45;;;1.50;;
75787;SDS011;64406;50.024;14.492;2023-04-23T09:45:02;5.10;;;1.60;;
75787;SDS011;64406;50.024;14.492;2023-04-23T09:47:34;4.03;;;1.80;;
75787;SDS011;64406;50.024;14.492;2023-04-23T09:50:02;2.88;;;1.67;;
75787;SDS011;64406;50.024;14.492;2023-04-23T09:52:32;2.30;;;1.50;;
75787;SDS011;64406;50.024;14.492;2023-04-23T09:55:01;1.45;;;1.00;;
75787;SDS011;64406;50.024;14.492;2023-04-23T09:57:27;3.88;;;1.95;;
75787;SDS011;64406;50.024;14.492;2023-04-23T09:59:56;1.38;;;1.25;;
75787;SDS011;64406;50.024;14.492;2023-04-23T10:02:26;2.28;;;1.50;;
75787;SDS011;64406;50.024;14.492;2023-04-23T10:04:57;3.10;;;1.58;;
75787;SDS011;64406;50.024;14.492;2023-04-23T10:07:23;1.70;;;1.50;;
75787;SDS011;64406;50.024;14.492;2023-04-23T10:09:49;7.43;;;1.80;;
75787;SDS011;64406;50.024;14.492;2023-04-23T10:12:15;2.65;;;1.48;;
75787;SDS011;64406;50.024;14.492;2023-04-23T10:14:41;3.13;;;1.60;;
75787;SDS011;64406;50.024;14.492;2023-04-23T10:17:07;4.57;;;1.77;;
75787;SDS011;64406;50.024;14.492;2023-04-23T10:19:34;1.88;;;1.48;;
75787;SDS011;64406;50.024;14.492;2023-04-23T10:22:05;2.30;;;1.60;;
75787;SDS011;64406;50.024;14.492;2023-04-23T10:24:34;2.08;;;1.55;;
75787;SDS011;64406;50.024;14.492;2023-04-23T10:27:04;2.88;;;1.77;;
75787;SDS011;64406;50.024;14.492;2023-04-23T10:29:35;2.67;;;1.95;;
75787;SDS011;64406;50.024;14.492;2023-04-23T10:32:04;3.58;;;1.70;;
75787;SDS011;64406;50.024;14.492;2023-04-23T10:34:30;3.55;;;1.63;;
75787;SDS011;64406;50.024;14.492;2023-04-23T10:36:58;1.67;;;1.33;;
75787;SDS011;64406;50.024;14.492;2023-04-23T10:39:26;3.13;;;1.85;;
75787;SDS011;64406;50.024;14.492;2023-04-23T10:41:54;1.60;;;1.23;;
75787;SDS011;64406;50.024;14.492;2023-04-23T10:44:21;2.28;;;1.30;;
75787;SDS011;64406;50.024;14.492;2023-04-23T10:46:51;2.85;;;1.42;;
75787;SDS011;64406;50.024;14.492;2023-04-23T10:49:22;3.35;;;1.83;;
75787;SDS011;64406;50.024;14.492;2023-04-23T10:51:52;1.85;;;1.60;;
75787;SDS011;64406;50.024;14.492;2023-04-23T10:54:49;2.22;;;1.65;;
75787;SDS011;64406;50.024;14.492;2023-04-23T10:57:21;3.05;;;1.77;;
75787;SDS011;64406;50.024;14.492;2023-04-23T10:59:50;1.65;;;1.40;;
75787;SDS011;64406;50.024;14.492;2023-04-23T11:02:18;1.90;;;1.30;;
75787;SDS011;64406;50.024;14.492;2023-04-23T11:04:45;2.95;;;1.50;;
75787;SDS011;64406;50.024;14.492;2023-04-23T11:07:31;2.20;;;1.55;;
75787;SDS011;64406;50.024;14.492;2023-04-23T11:09:58;1.50;;;1.40;;
75787;SDS011;64406;50.024;14.492;2023-04-23T11:14:51;3.50;;;1.80;;
75787;SDS011;64406;50.024;14.492;2023-04-23T11:18:01;3.75;;;1.63;;
75787;SDS011;64406;50.024;14.492;2023-04-23T11:22:38;2.13;;;1.40;;
75787;SDS011;64406;50.024;14.492;2023-04-23T11:25:10;3.28;;;1.67;;
75787;SDS011;64406;50.024;14.492;2023-04-23T11:27:38;2.00;;;1.40;;
75787;SDS011;64406;50.024;14.492;2023-04-23T11:30:39;3.05;;;1.83;;
75787;SDS011;64406;50.024;14.492;2023-04-23T11:32:58;2.83;;;1.30;;
75787;SDS011;64406;50.024;14.492;2023-04-23T11:35:25;2.90;;;1.67;;
75787;SDS011;64406;50.024;14.492;2023-04-23T11:37:53;2.33;;;1.60;;
75787;SDS011;64406;50.024;14.492;2023-04-23T11:40:20;2.15;;;1.60;;
75787;SDS011;64406;50.024;14.492;2023-04-23T11:42:53;2.03;;;1.48;;
75787;SDS011;64406;50.024;14.492;2023-04-23T11:45:26;1.75;;;1.15;;
75787;SDS011;64406;50.024;14.492;2023-04-23T11:47:56;2.95;;;1.33;;
75787;SDS011;64406;50.024;14.492;2023-04-23T11:50:31;1.92;;;1.50;;
75787;SDS011;64406;50.024;14.492;2023-04-23T11:53:05;2.65;;;1.48;;
75787;SDS011;64406;50.024;14.492;2023-04-23T11:55:32;1.48;;;1.30;;
75787;SDS011;64406;50.024;14.492;2023-04-23T11:57:57;2.25;;;1.30;;
75787;SDS011;64406;50.024;14.492;2023-04-23T12:00:24;1.17;;;1.00;;
75787;SDS011;64406;50.024;14.492;2023-04-23T12:05:21;2.20;;;1.48;;
75787;SDS011;64406;50.024;14.492;2023-04-23T12:07:48;3.80;;;1.98;;
75787;SDS011;64406;50.024;14.492;2023-04-23T12:10:19;2.17;;;1.25;;
75787;SDS011;64406;50.024;14.492;2023-04-23T12:12:50;2.65;;;1.15;;
75787;SDS011;64406;50.024;14.492;2023-04-23T12:15:16;1.77;;;1.50;;
75787;SDS011;64406;50.024;14.492;2023-04-23T12:17:46;3.33;;;1.77;;
75787;SDS011;64406;50.024;14.492;2023-04-23T12:20:19;1.90;;;1.35;;
75787;SDS011;64406;50.024;14.492;2023-04-23T12:22:46;3.30;;;1.60;;
75787;SDS011;64406;50.024;14.492;2023-04-23T12:25:12;3.85;;;1.60;;
75787;SDS011;64406;50.024;14.492;2023-04-23T12:27:39;1.95;;;1.20;;
75787;SDS011;64406;50.024;14.492;2023-04-23T12:30:07;2.63;;;1.77;;
75787;SDS011;64406;50.024;14.492;2023-04-23T12:32:33;1.65;;;1.20;;
75787;SDS011;64406;50.024;14.492;2023-04-23T12:34:59;1.17;;;1.05;;
75787;SDS011;64406;50.024;14.492;2023-04-23T12:37:28;2.40;;;1.42;;
75787;SDS011;64406;50.024;14.492;2023-04-23T12:39:55;1.90;;;1.05;;
75787;SDS011;64406;50.024;14.492;2023-04-23T12:42:23;4.35;;;1.60;;
75787;SDS011;64406;50.024;14.492;2023-04-23T12:44:49;2.58;;;1.50;;
75787;SDS011;64406;50.024;14.492;2023-04-23T12:50:56;2.00;;;1.50;;
75787;SDS011;64406;50.024;14.492;2023-04-23T12:53:22;2.30;;;1.58;;
75787;SDS011;64406;50.024;14.492;2023-04-23T12:55:47;2.58;;;1.20;;
75787;SDS011;64406;50.024;14.492;2023-04-23T12:58:14;1.58;;;1.23;;
75787;SDS011;64406;50.024;14.492;2023-04-23T13:00:40;1.73;;;1.20;;
75787;SDS011;64406;50.024;14.492;2023-04-23T13:03:05;1.80;;;1.40;;
75787;SDS011;64406;50.024;14.492;2023-04-23T13:05:31;2.63;;;1.52;;
75787;SDS011;64406;50.024;14.492;2023-04-23T13:07:57;2.10;;;1.73;;
75787;SDS011;64406;50.024;14.492;2023-04-23T13:10:23;2.10;;;1.10;;
75787;SDS011;64406;50.024;14.492;2023-04-23T13:12:48;1.98;;;1.42;;
75787;SDS011;64406;50.024;14.492;2023-04-23T13:15:14;2.67;;;1.67;;
75787;SDS011;64406;50.024;14.492;2023-04-23T13:17:40;2.88;;;1.40;;
75787;SDS011;64406;50.024;14.492;2023-04-23T13:20:05;2.13;;;1.27;;
75787;SDS011;64406;50.024;14.492;2023-04-23T13:22:33;2.08;;;1.48;;
75787;SDS011;64406;50.024;14.492;2023-04-23T13:24:58;1.60;;;1.17;;
75787;SDS011;64406;50.024;14.492;2023-04-23T13:27:25;2.20;;;1.10;;
75787;SDS011;64406;50.024;14.492;2023-04-23T13:29:52;1.83;;;1.60;;
75787;SDS011;64406;50.024;14.492;2023-04-23T13:32:18;3.40;;;1.23;;
75787;SDS011;64406;50.024;14.492;2023-04-23T13:34:43;1.60;;;1.08;;
75787;SDS011;64406;50.024;14.492;2023-04-23T13:37:09;1.02;;;0.85;;
75787;SDS011;64406;50.024;14.492;2023-04-23T13:39:36;2.05;;;1.20;;
75787;SDS011;64406;50.024;14.492;2023-04-23T13:42:02;2.20;;;1.50;;
75787;SDS011;64406;50.024;14.492;2023-04-23T13:44:29;1.50;;;1.17;;
75787;SDS011;64406;50.024;14.492;2023-04-23T13:46:55;2.17;;;1.40;;
75787;SDS011;64406;50.024;14.492;2023-04-23T13:49:23;1.30;;;1.20;;
75787;SDS011;64406;50.024;14.492;2023-04-23T13:51:54;2.28;;;1.00;;
75787;SDS011;64406;50.024;14.492;2023-04-23T13:54:24;1.27;;;1.13;;
75787;SDS011;64406;50.024;14.492;2023-04-23T13:56:56;1.70;;;1.33;;
75787;SDS011;64406;50.024;14.492;2023-04-23T13:59:23;1.52;;;1.13;;
75787;SDS011;64406;50.024;14.492;2023-04-23T14:01:49;1.23;;;1.13;;
75787;SDS011;64406;50.024;14.492;2023-04-23T14:04:14;1.88;;;1.33;;
75787;SDS011;64406;50.024;14.492;2023-04-23T14:06:41;1.30;;;1.10;;
75787;SDS011;64406;50.024;14.492;2023-04-23T14:09:06;0.85;;;0.77;;
75787;SDS011;64406;50.024;14.492;2023-04-23T14:11:32;1.17;;;1.08;;
75787;SDS011;64406;50.024;14.492;2023-04-23T14:13:58;1.60;;;1.30;;
75787;SDS011;64406;50.024;14.492;2023-04-23T14:16:25;2.15;;;1.25;;
75787;SDS011;64406;50.024;14.492;2023-04-23T14:18:51;1.55;;;1.20;;
75787;SDS011;64406;50.024;14.492;2023-04-23T14:21:16;2.33;;;1.40;;
75787;SDS011;64406;50.024;14.492;2023-04-23T14:23:43;5.60;;;2.08;;
75787;SDS011;64406;50.024;14.492;2023-04-23T14:26:34;1.75;;;1.25;;
75787;SDS011;64406;50.024;14.492;2023-04-23T14:32:00;2.17;;;1.20;;
75787;SDS011;64406;50.024;14.492;2023-04-23T14:34:26;2.05;;;1.10;;
75787;SDS011;64406;50.024;14.492;2023-04-23T14:36:52;1.98;;;1.00;;
75787;SDS011;64406;50.024;14.492;2023-04-23T14:39:18;3.13;;;0.95;;
75787;SDS011;64406;50.024;14.492;2023-04-23T14:41:47;1.92;;;1.20;;
75787;SDS011;64406;50.024;14.492;2023-04-23T14:44:13;1.40;;;1.00;;
75787;SDS011;64406;50.024;14.492;2023-04-23T14:46:38;1.30;;;1.00;;
75787;SDS011;64406;50.024;14.492;2023-04-23T14:49:04;0.93;;;0.90;;